sensor_id;sensor_type;location;lat;lon;timestamp;P1;durP1;ratioP1;P2;durP2;ratioP2
2480;SDS011;57396;48.742;9.128;2022-08-27T00:01:54;15.03;;;12.60;;
2480;SDS011;57396;48.742;9.128;2022-08-27T00:04:19;23.57;;;14.20;;
2480;SDS011;57396;48.742;9.128;2022-08-27T00:06:44;17.83;;;14.13;;
2480;SDS011;57396;48.742;9.128;2022-08-27T00:09:10;24.80;;;16.00;;
2480;SDS011;57396;48.742;9.128;2022-08-27T00:11:35;18.60;;;16.80;;
2480;SDS011;57396;48.742;9.128;2022-08-27T00:14:01;23.90;;;17.23;;
2480;SDS011;57396;48.742;9.128;2022-08-27T00:16:27;17.10;;;14.63;;
2480;SDS011;57396;48.742;9.128;2022-08-27T00:18:53;17.80;;;15.10;;
2480;SDS011;57396;48.742;9.128;2022-08-27T00:21:19;24.33;;;16.30;;
2480;SDS011;57396;48.742;9.128;2022-08-27T00:23:45;15.70;;;14.00;;
2480;SDS011;57396;48.742;9.128;2022-08-27T00:26:10;17.77;;;15.50;;
2480;SDS011;57396;48.742;9.128;2022-08-27T00:28:36;17.93;;;15.33;;
2480;SDS011;57396;48.742;9.128;2022-08-27T00:31:02;21.73;;;15.53;;
2480;SDS011;57396;48.742;9.128;2022-08-27T00:33:27;20.10;;;16.43;;
2480;SDS011;57396;48.742;9.128;2022-08-27T00:35:54;18.10;;;14.73;;
2480;SDS011;57396;48.742;9.128;2022-08-27T00:38:21;19.20;;;15.67;;
2480;SDS011;57396;48.742;9.128;2022-08-27T00:40:47;28.93;;;17.10;;
2480;SDS011;57396;48.742;9.128;2022-08-27T00:43:13;18.40;;;14.83;;
2480;SDS011;57396;48.742;9.128;2022-08-27T00:45:46;23.83;;;17.67;;
2480;SDS011;57396;48.742;9.128;2022-08-27T00:48:12;22.30;;;17.73;;
2480;SDS011;57396;48.742;9.128;2022-08-27T00:50:40;22.20;;;19.13;;
2480;SDS011;57396;48.742;9.128;2022-08-27T00:53:12;23.40;;;16.90;;
2480;SDS011;57396;48.742;9.128;2022-08-27T00:55:41;21.93;;;17.73;;
2480;SDS011;57396;48.742;9.128;2022-08-27T00:58:17;25.00;;;20.30;;
2480;SDS011;57396;48.742;9.128;2022-08-27T01:01:03;21.17;;;18.23;;
2480;SDS011;57396;48.742;9.128;2022-08-27T01:03:30;21.77;;;19.40;;
2480;SDS011;57396;48.742;9.128;2022-08-27T01:05:56;25.53;;;19.87;;
2480;SDS011;57396;48.742;9.128;2022-08-27T01:08:24;24.63;;;19.00;;
2480;SDS011;57396;48.742;9.128;2022-08-27T01:10:51;22.47;;;20.07;;
2480;SDS011;57396;48.742;9.128;2022-08-27T01:13:19;29.33;;;19.00;;
2480;SDS011;57396;48.742;9.128;2022-08-27T01:15:47;20.43;;;17.50;;
2480;SDS011;57396;48.742;9.128;2022-08-27T01:18:13;25.87;;;19.63;;
2480;SDS011;57396;48.742;9.128;2022-08-27T01:20:42;22.90;;;18.70;;
2480;SDS011;57396;48.742;9.128;2022-08-27T01:23:23;23.50;;;19.13;;
2480;SDS011;57396;48.742;9.128;2022-08-27T01:25:53;22.50;;;19.50;;
2480;SDS011;57396;48.742;9.128;2022-08-27T01:28:19;23.17;;;19.03;;
2480;SDS011;57396;48.742;9.128;2022-08-27T01:30:45;22.87;;;19.70;;
2480;SDS011;57396;48.742;9.128;2022-08-27T01:33:12;24.73;;;18.77;;
2480;SDS011;57396;48.742;9.128;2022-08-27T01:35:40;24.93;;;20.00;;
2480;SDS011;57396;48.742;9.128;2022-08-27T01:38:06;24.30;;;20.17;;
2480;SDS011;57396;48.742;9.128;2022-08-27T01:40:33;24.43;;;19.50;;
2480;SDS011;57396;48.742;9.128;2022-08-27T01:42:58;22.87;;;19.00;;
2480;SDS011;57396;48.742;9.128;2022-08-27T01:45:25;23.53;;;19.70;;
2480;SDS011;57396;48.742;9.128;2022-08-27T01:47:54;24.43;;;19.70;;
2480;SDS011;57396;48.742;9.128;2022-08-27T01:50:23;24.50;;;20.07;;
2480;SDS011;57396;48.742;9.128;2022-08-27T01:52:56;22.00;;;19.73;;
2480;SDS011;57396;48.742;9.128;2022-08-27T01:55:25;26.20;;;19.70;;
2480;SDS011;57396;48.742;9.128;2022-08-27T01:57:51;23.07;;;18.33;;
2480;SDS011;57396;48.742;9.128;2022-08-27T02:00:20;25.40;;;20.33;;
2480;SDS011;57396;48.742;9.128;2022-08-27T02:02:48;24.23;;;19.60;;
2480;SDS011;57396;48.742;9.128;2022-08-27T02:05:14;24.63;;;18.80;;
2480;SDS011;57396;48.742;9.128;2022-08-27T02:07:40;21.77;;;18.43;;
2480;SDS011;57396;48.742;9.128;2022-08-27T02:10:08;24.83;;;19.73;;
2480;SDS011;57396;48.742;9.128;2022-08-27T02:12:34;21.70;;;18.73;;
2480;SDS011;57396;48.742;9.128;2022-08-27T02:15:00;22.40;;;18.47;;
2480;SDS011;57396;48.742;9.128;2022-08-27T02:17:25;22.20;;;19.77;;
2480;SDS011;57396;48.742;9.128;2022-08-27T02:19:51;24.33;;;20.20;;
2480;SDS011;57396;48.742;9.128;2022-08-27T02:22:17;28.20;;;19.70;;
2480;SDS011;57396;48.742;9.128;2022-08-27T02:24:43;24.03;;;19.97;;
2480;SDS011;57396;48.742;9.128;2022-08-27T02:27:08;23.87;;;20.13;;
2480;SDS011;57396;48.742;9.128;2022-08-27T02:29:34;26.93;;;19.70;;
2480;SDS011;57396;48.742;9.128;2022-08-27T02:32:00;27.43;;;20.73;;
2480;SDS011;57396;48.742;9.128;2022-08-27T02:34:26;20.40;;;18.20;;
2480;SDS011;57396;48.742;9.128;2022-08-27T02:36:52;30.70;;;19.97;;
2480;SDS011;57396;48.742;9.128;2022-08-27T02:39:18;31.10;;;20.20;;
2480;SDS011;57396;48.742;9.128;2022-08-27T02:41:44;23.10;;;20.50;;
2480;SDS011;57396;48.742;9.128;2022-08-27T02:44:09;22.70;;;20.30;;
2480;SDS011;57396;48.742;9.128;2022-08-27T02:46:35;24.30;;;20.50;;
2480;SDS011;57396;48.742;9.128;2022-08-27T02:49:02;27.90;;;19.67;;
2480;SDS011;57396;48.742;9.128;2022-08-27T02:51:28;22.47;;;18.90;;
2480;SDS011;57396;48.742;9.128;2022-08-27T02:53:53;24.93;;;19.83;;
2480;SDS011;57396;48.742;9.128;2022-08-27T02:56:19;25.40;;;20.67;;
2480;SDS011;57396;48.742;9.128;2022-08-27T02:58:44;22.73;;;19.77;;
2480;SDS011;57396;48.742;9.128;2022-08-27T03:01:10;29.33;;;22.33;;
2480;SDS011;57396;48.742;9.128;2022-08-27T03:03:35;27.20;;;22.57;;
2480;SDS011;57396;48.742;9.128;2022-08-27T03:06:01;26.33;;;22.90;;
2480;SDS011;57396;48.742;9.128;2022-08-27T03:08:27;31.30;;;23.90;;
2480;SDS011;57396;48.742;9.128;2022-08-27T03:10:53;27.03;;;21.87;;
2480;SDS011;57396;48.742;9.128;2022-08-27T03:13:19;27.63;;;22.00;;
2480;SDS011;57396;48.742;9.128;2022-08-27T03:15:45;23.83;;;20.30;;
2480;SDS011;57396;48.742;9.128;2022-08-27T03:18:10;23.83;;;20.50;;
2480;SDS011;57396;48.742;9.128;2022-08-27T03:20:50;23.63;;;20.87;;
2480;SDS011;57396;48.742;9.128;2022-08-27T03:23:18;23.37;;;19.93;;
2480;SDS011;57396;48.742;9.128;2022-08-27T03:25:47;21.60;;;19.30;;
2480;SDS011;57396;48.742;9.128;2022-08-27T03:28:18;22.93;;;19.57;;
2480;SDS011;57396;48.742;9.128;2022-08-27T03:30:47;22.37;;;19.13;;
2480;SDS011;57396;48.742;9.128;2022-08-27T03:33:14;23.03;;;19.07;;
2480;SDS011;57396;48.742;9.128;2022-08-27T03:35:40;24.70;;;18.77;;
2480;SDS011;57396;48.742;9.128;2022-08-27T03:38:05;21.27;;;19.03;;
2480;SDS011;57396;48.742;9.128;2022-08-27T03:40:31;21.57;;;18.20;;
2480;SDS011;57396;48.742;9.128;2022-08-27T03:42:56;22.50;;;18.00;;
2480;SDS011;57396;48.742;9.128;2022-08-27T03:45:22;23.97;;;17.37;;
2480;SDS011;57396;48.742;9.128;2022-08-27T03:47:48;23.97;;;17.00;;
2480;SDS011;57396;48.742;9.128;2022-08-27T03:50:14;21.10;;;18.60;;
2480;SDS011;57396;48.742;9.128;2022-08-27T03:52:40;20.43;;;18.27;;
2480;SDS011;57396;48.742;9.128;2022-08-27T03:55:06;20.63;;;17.97;;
2480;SDS011;57396;48.742;9.128;2022-08-27T03:57:32;18.73;;;16.73;;
2480;SDS011;57396;48.742;9.128;2022-08-27T03:59:58;22.17;;;18.87;;
2480;SDS011;57396;48.742;9.128;2022-08-27T04:02:24;21.43;;;19.13;;
2480;SDS011;57396;48.742;9.128;2022-08-27T04:04:50;29.40;;;20.57;;
2480;SDS011;57396;48.742;9.128;2022-08-27T04:07:15;20.23;;;18.20;;
2480;SDS011;57396;48.742;9.128;2022-08-27T04:09:41;23.13;;;18.90;;
2480;SDS011;57396;48.742;9.128;2022-08-27T04:12:06;25.80;;;18.60;;
2480;SDS011;57396;48.742;9.128;2022-08-27T04:14:32;22.07;;;19.67;;
2480;SDS011;57396;48.742;9.128;2022-08-27T04:16:58;21.37;;;18.97;;
2480;SDS011;57396;48.742;9.128;2022-08-27T04:19:24;25.40;;;21.07;;
2480;SDS011;57396;48.742;9.128;2022-08-27T04:21:51;25.93;;;20.23;;
2480;SDS011;57396;48.742;9.128;2022-08-27T04:24:17;23.87;;;20.50;;
2480;SDS011;57396;48.742;9.128;2022-08-27T04:26:42;23.43;;;20.50;;
2480;SDS011;57396;48.742;9.128;2022-08-27T04:29:09;27.90;;;21.03;;
2480;SDS011;57396;48.742;9.128;2022-08-27T04:31:35;23.47;;;20.90;;
2480;SDS011;57396;48.742;9.128;2022-08-27T04:34:00;26.90;;;21.30;;
2480;SDS011;57396;48.742;9.128;2022-08-27T04:36:26;28.97;;;22.07;;
2480;SDS011;57396;48.742;9.128;2022-08-27T04:38:51;27.90;;;22.63;;
2480;SDS011;57396;48.742;9.128;2022-08-27T04:41:17;34.30;;;23.90;;
2480;SDS011;57396;48.742;9.128;2022-08-27T04:43:51;29.67;;;23.67;;
2480;SDS011;57396;48.742;9.128;2022-08-27T04:46:38;30.60;;;24.23;;
2480;SDS011;57396;48.742;9.128;2022-08-27T04:49:09;37.53;;;27.40;;
2480;SDS011;57396;48.742;9.128;2022-08-27T04:51:36;42.77;;;30.03;;
2480;SDS011;57396;48.742;9.128;2022-08-27T04:54:03;38.97;;;30.33;;
2480;SDS011;57396;48.742;9.128;2022-08-27T04:56:30;41.33;;;31.17;;
2480;SDS011;57396;48.742;9.128;2022-08-27T04:58:56;42.47;;;32.47;;
2480;SDS011;57396;48.742;9.128;2022-08-27T05:01:23;38.73;;;31.23;;
2480;SDS011;57396;48.742;9.128;2022-08-27T05:03:50;44.23;;;32.87;;
2480;SDS011;57396;48.742;9.128;2022-08-27T05:06:16;41.97;;;33.40;;
2480;SDS011;57396;48.742;9.128;2022-08-27T05:08:41;45.50;;;33.70;;
2480;SDS011;57396;48.742;9.128;2022-08-27T05:11:08;41.40;;;32.23;;
2480;SDS011;57396;48.742;9.128;2022-08-27T05:13:37;59.07;;;34.27;;
2480;SDS011;57396;48.742;9.128;2022-08-27T05:16:05;45.93;;;34.10;;
2480;SDS011;57396;48.742;9.128;2022-08-27T05:18:32;45.20;;;32.77;;
2480;SDS011;57396;48.742;9.128;2022-08-27T05:20:59;44.27;;;33.23;;
2480;SDS011;57396;48.742;9.128;2022-08-27T05:23:24;42.97;;;34.87;;
2480;SDS011;57396;48.742;9.128;2022-08-27T05:25:52;45.10;;;32.97;;
2480;SDS011;57396;48.742;9.128;2022-08-27T05:28:18;46.03;;;34.43;;
2480;SDS011;57396;48.742;9.128;2022-08-27T05:30:48;48.20;;;34.30;;
2480;SDS011;57396;48.742;9.128;2022-08-27T05:33:17;44.17;;;34.50;;
2480;SDS011;57396;48.742;9.128;2022-08-27T05:35:45;42.83;;;33.00;;
2480;SDS011;57396;48.742;9.128;2022-08-27T05:38:12;38.60;;;32.87;;
2480;SDS011;57396;48.742;9.128;2022-08-27T05:40:38;44.70;;;35.07;;
2480;SDS011;57396;48.742;9.128;2022-08-27T05:43:08;41.73;;;34.10;;
2480;SDS011;57396;48.742;9.128;2022-08-27T05:45:39;48.43;;;34.50;;
2480;SDS011;57396;48.742;9.128;2022-08-27T05:48:09;43.20;;;33.13;;
2480;SDS011;57396;48.742;9.128;2022-08-27T05:50:38;46.63;;;35.60;;
2480;SDS011;57396;48.742;9.128;2022-08-27T05:53:04;54.10;;;35.00;;
2480;SDS011;57396;48.742;9.128;2022-08-27T05:55:38;51.67;;;34.30;;
2480;SDS011;57396;48.742;9.128;2022-08-27T05:58:06;44.43;;;33.47;;
2480;SDS011;57396;48.742;9.128;2022-08-27T06:00:32;43.57;;;33.90;;
2480;SDS011;57396;48.742;9.128;2022-08-27T06:03:16;54.70;;;38.17;;
2480;SDS011;57396;48.742;9.128;2022-08-27T06:05:41;52.47;;;36.77;;
2480;SDS011;57396;48.742;9.128;2022-08-27T06:08:07;49.43;;;37.30;;
2480;SDS011;57396;48.742;9.128;2022-08-27T06:10:33;42.70;;;33.07;;
2480;SDS011;57396;48.742;9.128;2022-08-27T06:12:59;41.33;;;32.37;;
2480;SDS011;57396;48.742;9.128;2022-08-27T06:15:25;52.97;;;33.10;;
2480;SDS011;57396;48.742;9.128;2022-08-27T06:17:50;48.13;;;33.30;;
2480;SDS011;57396;48.742;9.128;2022-08-27T06:20:16;43.30;;;33.50;;
2480;SDS011;57396;48.742;9.128;2022-08-27T06:22:42;41.93;;;33.60;;
2480;SDS011;57396;48.742;9.128;2022-08-27T06:25:08;41.00;;;31.47;;
2480;SDS011;57396;48.742;9.128;2022-08-27T06:27:34;51.43;;;30.93;;
2480;SDS011;57396;48.742;9.128;2022-08-27T06:29:59;46.23;;;33.03;;
2480;SDS011;57396;48.742;9.128;2022-08-27T06:32:25;41.03;;;30.80;;
2480;SDS011;57396;48.742;9.128;2022-08-27T06:34:50;40.00;;;30.90;;
2480;SDS011;57396;48.742;9.128;2022-08-27T06:37:16;37.77;;;30.70;;
2480;SDS011;57396;48.742;9.128;2022-08-27T06:39:41;37.87;;;29.10;;
2480;SDS011;57396;48.742;9.128;2022-08-27T06:42:09;34.77;;;28.70;;
2480;SDS011;57396;48.742;9.128;2022-08-27T06:44:36;34.70;;;28.70;;
2480;SDS011;57396;48.742;9.128;2022-08-27T06:47:01;38.00;;;29.70;;
2480;SDS011;57396;48.742;9.128;2022-08-27T06:49:28;39.10;;;28.80;;
2480;SDS011;57396;48.742;9.128;2022-08-27T06:51:53;33.73;;;27.20;;
2480;SDS011;57396;48.742;9.128;2022-08-27T06:54:19;31.63;;;26.90;;
2480;SDS011;57396;48.742;9.128;2022-08-27T06:56:44;39.10;;;30.63;;
2480;SDS011;57396;48.742;9.128;2022-08-27T06:59:11;35.87;;;29.33;;
2480;SDS011;57396;48.742;9.128;2022-08-27T07:01:40;35.20;;;28.40;;
2480;SDS011;57396;48.742;9.128;2022-08-27T07:04:08;31.60;;;26.40;;
2480;SDS011;57396;48.742;9.128;2022-08-27T07:06:35;35.13;;;28.23;;
2480;SDS011;57396;48.742;9.128;2022-08-27T07:09:03;34.90;;;26.27;;
2480;SDS011;57396;48.742;9.128;2022-08-27T07:11:29;31.40;;;26.37;;
2480;SDS011;57396;48.742;9.128;2022-08-27T07:13:58;30.00;;;25.47;;
2480;SDS011;57396;48.742;9.128;2022-08-27T07:16:24;32.43;;;26.27;;
2480;SDS011;57396;48.742;9.128;2022-08-27T07:18:52;33.83;;;27.47;;
2480;SDS011;57396;48.742;9.128;2022-08-27T07:21:20;30.10;;;25.87;;
2480;SDS011;57396;48.742;9.128;2022-08-27T07:23:47;33.33;;;26.30;;
2480;SDS011;57396;48.742;9.128;2022-08-27T07:26:14;30.60;;;26.37;;
2480;SDS011;57396;48.742;9.128;2022-08-27T07:28:40;30.93;;;25.60;;
2480;SDS011;57396;48.742;9.128;2022-08-27T07:31:07;30.60;;;24.60;;
2480;SDS011;57396;48.742;9.128;2022-08-27T07:33:35;34.70;;;23.03;;
2480;SDS011;57396;48.742;9.128;2022-08-27T07:36:01;29.10;;;23.70;;
2480;SDS011;57396;48.742;9.128;2022-08-27T07:38:28;32.27;;;25.37;;
2480;SDS011;57396;48.742;9.128;2022-08-27T07:40:53;32.37;;;22.10;;
2480;SDS011;57396;48.742;9.128;2022-08-27T07:43:19;35.97;;;24.50;;
2480;SDS011;57396;48.742;9.128;2022-08-27T07:46:03;27.80;;;23.17;;
2480;SDS011;57396;48.742;9.128;2022-08-27T07:48:29;29.73;;;24.47;;
2480;SDS011;57396;48.742;9.128;2022-08-27T07:50:57;34.13;;;25.03;;
2480;SDS011;57396;48.742;9.128;2022-08-27T07:53:22;26.40;;;22.73;;
2480;SDS011;57396;48.742;9.128;2022-08-27T07:55:48;31.17;;;23.83;;
2480;SDS011;57396;48.742;9.128;2022-08-27T07:58:13;32.13;;;25.30;;
2480;SDS011;57396;48.742;9.128;2022-08-27T08:00:40;31.60;;;24.80;;
2480;SDS011;57396;48.742;9.128;2022-08-27T08:03:07;38.97;;;26.73;;
2480;SDS011;57396;48.742;9.128;2022-08-27T08:05:33;35.80;;;26.03;;
2480;SDS011;57396;48.742;9.128;2022-08-27T08:07:58;35.00;;;29.57;;
2480;SDS011;57396;48.742;9.128;2022-08-27T08:10:24;33.67;;;26.83;;
2480;SDS011;57396;48.742;9.128;2022-08-27T08:12:49;32.90;;;27.07;;
2480;SDS011;57396;48.742;9.128;2022-08-27T08:15:16;34.37;;;27.10;;
2480;SDS011;57396;48.742;9.128;2022-08-27T08:17:42;39.40;;;28.07;;
2480;SDS011;57396;48.742;9.128;2022-08-27T08:20:09;39.90;;;27.97;;
2480;SDS011;57396;48.742;9.128;2022-08-27T08:22:36;32.40;;;26.57;;
2480;SDS011;57396;48.742;9.128;2022-08-27T08:25:05;37.70;;;28.13;;
2480;SDS011;57396;48.742;9.128;2022-08-27T08:27:31;41.43;;;27.47;;
2480;SDS011;57396;48.742;9.128;2022-08-27T08:29:57;30.60;;;24.83;;
2480;SDS011;57396;48.742;9.128;2022-08-27T08:32:23;37.03;;;28.00;;
2480;SDS011;57396;48.742;9.128;2022-08-27T08:34:48;30.70;;;25.20;;
2480;SDS011;57396;48.742;9.128;2022-08-27T08:37:14;36.60;;;29.70;;
2480;SDS011;57396;48.742;9.128;2022-08-27T08:39:40;36.13;;;28.00;;
2480;SDS011;57396;48.742;9.128;2022-08-27T08:42:07;41.10;;;30.17;;
2480;SDS011;57396;48.742;9.128;2022-08-27T08:44:47;42.63;;;30.27;;
2480;SDS011;57396;48.742;9.128;2022-08-27T08:50:19;37.63;;;28.70;;
2480;SDS011;57396;48.742;9.128;2022-08-27T08:53:20;42.00;;;28.73;;
2480;SDS011;57396;48.742;9.128;2022-08-27T08:55:47;35.20;;;29.47;;
2480;SDS011;57396;48.742;9.128;2022-08-27T09:01:01;37.00;;;28.80;;
2480;SDS011;57396;48.742;9.128;2022-08-27T09:03:30;41.80;;;30.47;;
2480;SDS011;57396;48.742;9.128;2022-08-27T09:06:03;38.13;;;28.20;;
2480;SDS011;57396;48.742;9.128;2022-08-27T09:08:34;38.77;;;30.90;;
2480;SDS011;57396;48.742;9.128;2022-08-27T09:16:13;32.87;;;28.33;;
2480;SDS011;57396;48.742;9.128;2022-08-27T09:18:39;38.77;;;27.83;;
2480;SDS011;57396;48.742;9.128;2022-08-27T09:26:28;39.60;;;27.17;;
2480;SDS011;57396;48.742;9.128;2022-08-27T09:28:57;37.83;;;28.83;;
2480;SDS011;57396;48.742;9.128;2022-08-27T09:31:44;36.63;;;27.27;;
2480;SDS011;57396;48.742;9.128;2022-08-27T09:34:11;35.73;;;27.30;;
2480;SDS011;57396;48.742;9.128;2022-08-27T09:36:54;37.17;;;27.70;;
2480;SDS011;57396;48.742;9.128;2022-08-27T09:39:25;36.33;;;25.30;;
2480;SDS011;57396;48.742;9.128;2022-08-27T09:41:53;45.40;;;26.27;;
2480;SDS011;57396;48.742;9.128;2022-08-27T09:44:19;34.27;;;25.70;;
2480;SDS011;57396;48.742;9.128;2022-08-27T09:46:50;31.33;;;24.60;;
2480;SDS011;57396;48.742;9.128;2022-08-27T09:49:20;26.17;;;21.03;;
2480;SDS011;57396;48.742;9.128;2022-08-27T09:51:46;19.80;;;17.80;;
2480;SDS011;57396;48.742;9.128;2022-08-27T09:54:22;17.80;;;15.97;;
2480;SDS011;57396;48.742;9.128;2022-08-27T09:56:51;27.67;;;14.90;;
2480;SDS011;57396;48.742;9.128;2022-08-27T09:59:20;18.67;;;14.80;;
2480;SDS011;57396;48.742;9.128;2022-08-27T10:01:52;16.57;;;13.57;;
2480;SDS011;57396;48.742;9.128;2022-08-27T10:04:36;16.50;;;14.80;;
2480;SDS011;57396;48.742;9.128;2022-08-27T10:07:18;13.40;;;12.10;;
2480;SDS011;57396;48.742;9.128;2022-08-27T10:15:28;15.30;;;11.33;;
2480;SDS011;57396;48.742;9.128;2022-08-27T10:18:00;12.17;;;10.10;;
2480;SDS011;57396;48.742;9.128;2022-08-27T10:26:16;10.90;;;9.97;;
2480;SDS011;57396;48.742;9.128;2022-08-27T10:32:01;11.50;;;10.30;;
2480;SDS011;57396;48.742;9.128;2022-08-27T10:45:49;12.80;;;11.13;;
2480;SDS011;57396;48.742;9.128;2022-08-27T10:50:49;12.07;;;10.73;;
2480;SDS011;57396;48.742;9.128;2022-08-27T11:05:16;13.53;;;12.13;;
2480;SDS011;57396;48.742;9.128;2022-08-27T11:08:11;14.60;;;13.03;;
2480;SDS011;57396;48.742;9.128;2022-08-27T11:10:53;14.23;;;12.73;;
2480;SDS011;57396;48.742;9.128;2022-08-27T11:13:25;15.50;;;13.03;;
2480;SDS011;57396;48.742;9.128;2022-08-27T11:15:56;19.10;;;13.80;;
2480;SDS011;57396;48.742;9.128;2022-08-27T11:18:26;18.00;;;13.27;;
2480;SDS011;57396;48.742;9.128;2022-08-27T11:23:32;17.20;;;14.97;;
2480;SDS011;57396;48.742;9.128;2022-08-27T11:26:03;15.13;;;12.70;;
2480;SDS011;57396;48.742;9.128;2022-08-27T11:28:35;14.57;;;13.20;;
2480;SDS011;57396;48.742;9.128;2022-08-27T11:44:24;15.77;;;14.03;;
2480;SDS011;57396;48.742;9.128;2022-08-27T11:47:13;15.30;;;13.70;;
2480;SDS011;57396;48.742;9.128;2022-08-27T11:49:45;19.20;;;14.53;;
2480;SDS011;57396;48.742;9.128;2022-08-27T11:52:26;15.57;;;14.00;;
2480;SDS011;57396;48.742;9.128;2022-08-27T11:54:55;16.07;;;14.43;;
2480;SDS011;57396;48.742;9.128;2022-08-27T11:57:34;16.13;;;14.50;;
2480;SDS011;57396;48.742;9.128;2022-08-27T12:03:02;22.30;;;14.77;;
2480;SDS011;57396;48.742;9.128;2022-08-27T12:05:38;17.90;;;16.03;;
2480;SDS011;57396;48.742;9.128;2022-08-27T12:16:34;25.60;;;17.00;;
2480;SDS011;57396;48.742;9.128;2022-08-27T12:27:00;21.67;;;17.13;;
2480;SDS011;57396;48.742;9.128;2022-08-27T12:29:39;24.37;;;17.23;;
2480;SDS011;57396;48.742;9.128;2022-08-27T12:35:13;22.00;;;17.00;;
2480;SDS011;57396;48.742;9.128;2022-08-27T12:38:10;19.37;;;16.87;;
2480;SDS011;57396;48.742;9.128;2022-08-27T12:40:50;21.10;;;18.67;;
2480;SDS011;57396;48.742;9.128;2022-08-27T12:43:25;20.87;;;17.60;;
2480;SDS011;57396;48.742;9.128;2022-08-27T12:46:25;20.33;;;17.87;;
2480;SDS011;57396;48.742;9.128;2022-08-27T12:48:47;22.37;;;17.47;;
2480;SDS011;57396;48.742;9.128;2022-08-27T12:51:25;19.33;;;17.30;;
2480;SDS011;57396;48.742;9.128;2022-08-27T12:54:00;20.03;;;18.00;;
2480;SDS011;57396;48.742;9.128;2022-08-27T13:04:38;21.70;;;17.23;;
2480;SDS011;57396;48.742;9.128;2022-08-27T13:07:05;22.83;;;19.80;;
2480;SDS011;57396;48.742;9.128;2022-08-27T13:09:31;30.03;;;21.70;;
2480;SDS011;57396;48.742;9.128;2022-08-27T13:11:59;30.20;;;20.37;;
2480;SDS011;57396;48.742;9.128;2022-08-27T13:14:27;25.37;;;19.33;;
2480;SDS011;57396;48.742;9.128;2022-08-27T13:17:04;23.40;;;20.00;;
2480;SDS011;57396;48.742;9.128;2022-08-27T13:19:33;22.83;;;20.00;;
2480;SDS011;57396;48.742;9.128;2022-08-27T13:22:01;23.60;;;18.20;;
2480;SDS011;57396;48.742;9.128;2022-08-27T13:24:33;24.87;;;21.33;;
2480;SDS011;57396;48.742;9.128;2022-08-27T13:27:00;27.97;;;20.00;;
2480;SDS011;57396;48.742;9.128;2022-08-27T13:29:26;25.83;;;19.10;;
2480;SDS011;57396;48.742;9.128;2022-08-27T13:31:52;24.70;;;18.30;;
2480;SDS011;57396;48.742;9.128;2022-08-27T13:34:23;24.03;;;18.17;;
2480;SDS011;57396;48.742;9.128;2022-08-27T13:36:57;27.60;;;20.20;;
2480;SDS011;57396;48.742;9.128;2022-08-27T13:39:26;21.20;;;17.30;;
2480;SDS011;57396;48.742;9.128;2022-08-27T13:41:52;22.37;;;17.80;;
2480;SDS011;57396;48.742;9.128;2022-08-27T13:44:19;24.17;;;18.30;;
2480;SDS011;57396;48.742;9.128;2022-08-27T13:46:49;23.50;;;17.00;;
2480;SDS011;57396;48.742;9.128;2022-08-27T13:49:22;19.73;;;15.20;;
2480;SDS011;57396;48.742;9.128;2022-08-27T13:51:56;23.40;;;17.80;;
2480;SDS011;57396;48.742;9.128;2022-08-27T13:54:31;19.30;;;15.40;;
2480;SDS011;57396;48.742;9.128;2022-08-27T13:56:59;17.67;;;15.87;;
2480;SDS011;57396;48.742;9.128;2022-08-27T13:59:33;20.63;;;16.50;;
2480;SDS011;57396;48.742;9.128;2022-08-27T14:04:36;19.47;;;15.43;;
2480;SDS011;57396;48.742;9.128;2022-08-27T14:07:09;21.73;;;16.20;;
2480;SDS011;57396;48.742;9.128;2022-08-27T14:09:54;19.07;;;16.47;;
2480;SDS011;57396;48.742;9.128;2022-08-27T14:12:26;20.90;;;14.27;;
2480;SDS011;57396;48.742;9.128;2022-08-27T14:15:22;17.20;;;14.70;;
2480;SDS011;57396;48.742;9.128;2022-08-27T14:18:03;21.20;;;15.27;;
2480;SDS011;57396;48.742;9.128;2022-08-27T14:20:29;15.63;;;14.07;;
2480;SDS011;57396;48.742;9.128;2022-08-27T14:22:55;16.00;;;14.50;;
2480;SDS011;57396;48.742;9.128;2022-08-27T14:25:21;16.93;;;13.87;;
2480;SDS011;57396;48.742;9.128;2022-08-27T14:27:48;17.53;;;14.23;;
2480;SDS011;57396;48.742;9.128;2022-08-27T14:30:16;20.60;;;14.83;;
2480;SDS011;57396;48.742;9.128;2022-08-27T14:32:43;20.93;;;14.27;;
2480;SDS011;57396;48.742;9.128;2022-08-27T14:35:09;16.10;;;14.17;;
2480;SDS011;57396;48.742;9.128;2022-08-27T14:37:36;19.07;;;13.73;;
2480;SDS011;57396;48.742;9.128;2022-08-27T14:40:03;18.83;;;15.10;;
2480;SDS011;57396;48.742;9.128;2022-08-27T14:42:29;16.63;;;13.90;;
2480;SDS011;57396;48.742;9.128;2022-08-27T14:44:54;17.03;;;13.07;;
2480;SDS011;57396;48.742;9.128;2022-08-27T14:47:20;20.67;;;15.00;;
2480;SDS011;57396;48.742;9.128;2022-08-27T14:49:45;18.00;;;14.50;;
2480;SDS011;57396;48.742;9.128;2022-08-27T14:52:11;19.07;;;15.10;;
2480;SDS011;57396;48.742;9.128;2022-08-27T14:54:39;18.73;;;14.13;;
2480;SDS011;57396;48.742;9.128;2022-08-27T14:57:05;26.53;;;16.43;;
2480;SDS011;57396;48.742;9.128;2022-08-27T14:59:32;22.83;;;19.00;;
2480;SDS011;57396;48.742;9.128;2022-08-27T15:01:58;22.90;;;18.03;;
2480;SDS011;57396;48.742;9.128;2022-08-27T15:04:25;20.17;;;15.23;;
2480;SDS011;57396;48.742;9.128;2022-08-27T15:06:51;19.17;;;14.40;;
2480;SDS011;57396;48.742;9.128;2022-08-27T15:09:17;15.23;;;13.23;;
2480;SDS011;57396;48.742;9.128;2022-08-27T15:11:42;15.20;;;13.60;;
2480;SDS011;57396;48.742;9.128;2022-08-27T15:14:10;18.53;;;14.73;;
2480;SDS011;57396;48.742;9.128;2022-08-27T15:16:39;24.80;;;16.10;;
2480;SDS011;57396;48.742;9.128;2022-08-27T15:19:06;20.77;;;15.70;;
2480;SDS011;57396;48.742;9.128;2022-08-27T15:21:33;17.57;;;15.63;;
2480;SDS011;57396;48.742;9.128;2022-08-27T15:24:01;19.90;;;15.43;;
2480;SDS011;57396;48.742;9.128;2022-08-27T15:26:31;17.87;;;14.97;;
2480;SDS011;57396;48.742;9.128;2022-08-27T15:28:57;17.57;;;15.77;;
2480;SDS011;57396;48.742;9.128;2022-08-27T15:31:22;25.27;;;16.03;;
2480;SDS011;57396;48.742;9.128;2022-08-27T15:33:48;25.17;;;15.83;;
2480;SDS011;57396;48.742;9.128;2022-08-27T15:36:13;20.60;;;15.20;;
2480;SDS011;57396;48.742;9.128;2022-08-27T15:38:39;16.47;;;14.67;;
2480;SDS011;57396;48.742;9.128;2022-08-27T15:41:04;17.87;;;14.67;;
2480;SDS011;57396;48.742;9.128;2022-08-27T15:43:30;17.17;;;15.40;;
2480;SDS011;57396;48.742;9.128;2022-08-27T15:45:56;19.90;;;14.33;;
2480;SDS011;57396;48.742;9.128;2022-08-27T15:48:22;30.63;;;20.93;;
2480;SDS011;57396;48.742;9.128;2022-08-27T15:50:47;18.27;;;16.43;;
2480;SDS011;57396;48.742;9.128;2022-08-27T15:53:13;18.77;;;15.23;;
2480;SDS011;57396;48.742;9.128;2022-08-27T15:55:41;17.97;;;15.70;;
2480;SDS011;57396;48.742;9.128;2022-08-27T15:58:08;20.67;;;15.53;;
2480;SDS011;57396;48.742;9.128;2022-08-27T16:00:35;21.50;;;16.60;;
2480;SDS011;57396;48.742;9.128;2022-08-27T16:03:02;19.47;;;15.20;;
2480;SDS011;57396;48.742;9.128;2022-08-27T16:05:31;21.07;;;15.87;;
2480;SDS011;57396;48.742;9.128;2022-08-27T16:07:59;16.97;;;15.00;;
2480;SDS011;57396;48.742;9.128;2022-08-27T16:10:24;20.03;;;14.00;;
2480;SDS011;57396;48.742;9.128;2022-08-27T16:12:50;20.73;;;14.87;;
2480;SDS011;57396;48.742;9.128;2022-08-27T16:15:16;16.30;;;14.20;;
2480;SDS011;57396;48.742;9.128;2022-08-27T16:17:42;18.37;;;14.10;;
2480;SDS011;57396;48.742;9.128;2022-08-27T16:20:08;17.10;;;15.17;;
2480;SDS011;57396;48.742;9.128;2022-08-27T16:22:35;17.43;;;14.73;;
2480;SDS011;57396;48.742;9.128;2022-08-27T16:25:01;16.37;;;13.50;;
2480;SDS011;57396;48.742;9.128;2022-08-27T16:27:28;16.37;;;14.73;;